createdAt,value
2023-04-16T00:02:30.925Z,7.72
2023-04-16T00:05:32.681Z,7.70
2023-04-16T00:08:35.903Z,7.69
2023-04-16T00:11:38.852Z,7.69
2023-04-16T00:14:40.642Z,7.69
2023-04-16T00:17:42.430Z,7.70
2023-04-16T00:20:44.335Z,7.70
2023-04-16T00:23:46.532Z,7.69
2023-04-16T00:26:49.529Z,7.70
2023-04-16T00:29:51.420Z,7.72
2023-04-16T00:32:53.394Z,7.71
2023-04-16T00:35:55.181Z,7.73
2023-04-16T00:38:56.969Z,7.72
2023-04-16T00:41:59.965Z,7.73
2023-04-16T00:45:01.795Z,7.71
2023-04-16T00:48:04.099Z,7.69
2023-04-16T00:51:06.564Z,7.72
2023-04-16T00:54:08.231Z,7.70
2023-04-16T00:57:13.398Z,7.71
2023-04-16T01:00:15.333Z,7.70
2023-04-16T01:03:17.370Z,7.69
2023-04-16T01:06:19.658Z,7.68
2023-04-16T01:09:21.849Z,7.67
2023-04-16T01:12:24.751Z,7.67
2023-04-16T01:15:27.929Z,7.67
2023-04-16T01:18:30.045Z,7.65
2023-04-16T01:21:32.979Z,7.64
2023-04-16T01:24:34.702Z,7.62
2023-04-16T01:27:37.786Z,7.63
2023-04-16T01:30:39.532Z,7.60
2023-04-16T01:33:53.181Z,7.60
2023-04-16T01:36:56.403Z,7.60
2023-04-16T01:39:58.300Z,7.57
2023-04-16T01:43:00.071Z,7.54
2023-04-16T01:46:13.858Z,7.52
2023-04-16T01:49:16.001Z,7.52
2023-04-16T01:52:22.206Z,7.49
2023-04-16T01:55:23.937Z,7.46
2023-04-16T01:58:25.726Z,7.44
2023-04-16T02:01:27.585Z,7.44
2023-04-16T02:04:30.396Z,7.43
2023-04-16T02:07:33.455Z,7.42
2023-04-16T02:10:35.141Z,7.41
2023-04-16T02:13:37.345Z,7.40
2023-04-16T02:16:40.072Z,7.40
2023-04-16T02:20:08.031Z,7.41
2023-04-16T02:23:15.119Z,7.42
2023-04-16T02:26:17.215Z,7.42
2023-04-16T02:29:19.899Z,7.41
2023-04-16T02:32:27.798Z,7.40
2023-04-16T02:35:29.494Z,7.39
2023-04-16T02:38:33.259Z,7.35
2023-04-16T02:41:35.130Z,7.34
2023-04-16T02:44:37.084Z,7.31
2023-04-16T02:47:38.762Z,7.28
2023-04-16T02:50:40.531Z,7.22
2023-04-16T02:53:46.075Z,7.20
2023-04-16T02:56:48.237Z,7.14
2023-04-16T02:59:49.921Z,7.10
2023-04-16T03:02:51.744Z,7.05
2023-04-16T03:05:53.571Z,7.02
2023-04-16T03:08:56.829Z,7.00
2023-04-16T03:11:58.476Z,6.96
2023-04-16T03:15:00.557Z,6.95
2023-04-16T03:18:02.327Z,6.94
2023-04-16T03:21:04.290Z,6.92
2023-04-16T03:24:08.093Z,6.92
2023-04-16T03:27:09.725Z,6.92
2023-04-16T03:30:12.314Z,6.91
2023-04-16T03:33:14.157Z,6.92
2023-04-16T03:36:15.771Z,6.90
2023-04-16T03:39:19.463Z,6.89
2023-04-16T03:42:21.448Z,6.89
2023-04-16T03:45:23.472Z,6.89
2023-04-16T03:48:26.915Z,6.85
2023-04-16T03:51:28.974Z,6.85
2023-04-16T03:54:32.650Z,6.83
2023-04-16T03:57:45.599Z,6.83
2023-04-16T04:00:50.039Z,6.82
2023-04-16T04:03:53.247Z,6.79
2023-04-16T04:06:55.854Z,6.78
2023-04-16T04:09:59.947Z,6.79
2023-04-16T04:13:03.030Z,6.69
2023-04-16T04:16:05.560Z,6.60
2023-04-16T04:19:08.181Z,6.56
2023-04-16T04:22:11.151Z,6.53
2023-04-16T04:25:14.808Z,6.52
2023-04-16T04:28:16.510Z,6.50
2023-04-16T04:31:20.451Z,6.50
2023-04-16T04:34:22.056Z,6.42
2023-04-16T04:37:23.850Z,6.38
2023-04-16T04:40:26.999Z,6.34
2023-04-16T04:43:29.086Z,6.29
2023-04-16T04:46:30.990Z,6.28
2023-04-16T04:49:32.843Z,6.29
2023-04-16T04:52:34.669Z,6.28
2023-04-16T04:55:38.875Z,6.24
2023-04-16T04:58:40.867Z,6.21
2023-04-16T05:01:42.625Z,6.17
2023-04-16T05:04:44.451Z,6.13
2023-04-16T05:07:46.231Z,6.09
2023-04-16T05:10:49.437Z,6.09
2023-04-16T05:13:51.287Z,6.07
2023-04-16T05:16:54.069Z,6.05
2023-04-16T05:19:55.994Z,5.99
2023-04-16T05:22:57.974Z,5.95
2023-04-16T05:26:01.152Z,5.91
2023-04-16T05:29:02.686Z,5.87
2023-04-16T05:32:04.421Z,5.91
2023-04-16T05:35:06.963Z,5.90
2023-04-16T05:38:08.860Z,5.90
2023-04-16T05:41:11.849Z,5.88
2023-04-16T05:44:13.462Z,5.88
2023-04-16T05:47:15.545Z,5.86
2023-04-16T05:50:17.251Z,5.91
2023-04-16T05:53:19.128Z,5.89
2023-04-16T05:56:22.077Z,5.89
2023-04-16T05:59:23.684Z,5.88
2023-04-16T06:02:25.603Z,5.88
2023-04-16T06:05:27.730Z,5.87
2023-04-16T06:08:29.322Z,5.89
2023-04-16T06:14:34.519Z,5.89
2023-04-16T06:17:36.364Z,5.92
2023-04-16T06:20:38.122Z,5.92
2023-04-16T06:23:39.940Z,5.89
2023-04-16T06:26:47.420Z,5.88
2023-04-16T06:29:49.511Z,5.86
2023-04-16T06:32:51.289Z,5.86
2023-04-16T06:35:53.151Z,5.89
2023-04-16T06:38:55.147Z,5.92
2023-04-16T06:41:59.034Z,5.88
2023-04-16T06:45:01.504Z,5.88
2023-04-16T06:48:05.242Z,5.88
2023-04-16T06:51:07.036Z,5.88
2023-04-16T06:54:08.716Z,5.91
2023-04-16T06:57:12.100Z,5.91
2023-04-16T07:00:13.993Z,5.92
2023-04-16T07:03:15.848Z,5.96
2023-04-16T07:06:17.776Z,6.05
2023-04-16T07:09:20.053Z,6.07
2023-04-16T07:12:25.653Z,6.07
2023-04-16T07:15:27.699Z,6.07
2023-04-16T07:18:29.570Z,6.10
2023-04-16T07:21:31.849Z,6.14
2023-04-16T07:24:33.945Z,6.13
2023-04-16T07:27:37.160Z,6.15
2023-04-16T07:30:38.939Z,6.19
2023-04-16T07:33:40.687Z,6.17
2023-04-16T07:36:42.607Z,6.22
2023-04-16T07:39:44.351Z,6.21
2023-04-16T07:42:47.422Z,6.27
2023-04-16T07:45:49.688Z,6.28
2023-04-16T07:48:51.572Z,6.29
2023-04-16T07:51:53.186Z,6.34
2023-04-16T07:54:54.740Z,6.41
2023-04-16T07:57:57.850Z,6.53
2023-04-16T08:00:59.784Z,6.46
2023-04-16T08:04:01.759Z,6.51
2023-04-16T08:07:03.797Z,6.53
2023-04-16T08:10:06.064Z,6.59
2023-04-16T08:13:09.165Z,6.62
2023-04-16T08:16:13.440Z,6.65
2023-04-16T08:19:15.889Z,6.66
2023-04-16T08:22:17.744Z,6.79
2023-04-16T08:25:20.230Z,6.77
2023-04-16T08:28:23.791Z,6.77
2023-04-16T08:31:25.683Z,6.71
2023-04-16T08:34:27.500Z,6.71
2023-04-16T08:37:30.324Z,6.71
2023-04-16T08:40:35.337Z,6.75
2023-04-16T08:43:39.446Z,6.79
2023-04-16T08:46:41.681Z,6.86
2023-04-16T08:49:44.176Z,6.95
2023-04-16T08:52:47.060Z,6.99
2023-04-16T08:55:50.480Z,6.96
2023-04-16T08:58:58.369Z,7.00
2023-04-16T09:02:00.844Z,7.05
2023-04-16T09:05:03.610Z,7.09
2023-04-16T09:08:06.606Z,7.05
2023-04-16T09:11:08.272Z,7.03
2023-04-16T09:14:12.200Z,7.06
2023-04-16T09:17:14.820Z,7.10
2023-04-16T09:20:16.675Z,7.11
2023-04-16T09:23:18.642Z,7.16
2023-04-16T09:26:20.821Z,7.19
2023-04-16T09:29:37.149Z,7.42
2023-04-16T09:32:38.943Z,7.43
2023-04-16T09:35:45.423Z,7.57
2023-04-16T09:38:48.411Z,7.54
2023-04-16T09:41:54.871Z,7.60
2023-04-16T09:45:00.297Z,7.60
2023-04-16T09:48:04.973Z,7.67
2023-04-16T09:51:07.506Z,7.65
2023-04-16T09:54:09.095Z,7.68
2023-04-16T09:57:10.979Z,7.58
2023-04-16T10:00:19.102Z,7.56
2023-04-16T10:03:29.032Z,7.56
2023-04-16T10:06:31.561Z,7.54
2023-04-16T10:09:37.688Z,7.49
2023-04-16T10:12:39.603Z,7.50
2023-04-16T10:15:43.210Z,7.46
2023-04-16T10:18:45.905Z,7.49
2023-04-16T10:21:50.665Z,7.49
2023-04-16T10:24:52.781Z,7.52
2023-04-16T10:27:55.548Z,7.53
2023-04-16T10:30:58.809Z,7.59
2023-04-16T10:34:00.721Z,7.63
2023-04-16T10:37:02.479Z,7.67
2023-04-16T10:40:21.836Z,7.63
2023-04-16T10:43:25.368Z,7.69
2023-04-16T10:46:30.993Z,7.72
2023-04-16T10:49:35.524Z,7.72
2023-04-16T10:52:37.619Z,7.73
2023-04-16T10:55:39.497Z,7.72
2023-04-16T10:58:41.362Z,7.75
2023-04-16T11:01:45.609Z,7.77
2023-04-16T11:04:48.239Z,7.84
2023-04-16T11:07:50.066Z,7.78
2023-04-16T11:10:51.836Z,7.70
2023-04-16T11:13:55.760Z,7.71
2023-04-16T11:17:01.647Z,7.73
2023-04-16T11:20:03.494Z,7.69
2023-04-16T11:23:19.175Z,7.67
2023-04-16T11:26:22.835Z,7.70
2023-04-16T11:29:24.398Z,7.70
2023-04-16T11:32:27.581Z,7.72
2023-04-16T11:35:29.247Z,7.76
2023-04-16T11:38:35.236Z,7.88
2023-04-16T11:41:42.261Z,7.93
2023-04-16T11:44:43.900Z,7.96
2023-04-16T11:47:47.653Z,7.95
2023-04-16T11:50:55.103Z,7.96
2023-04-16T11:53:56.701Z,7.96
2023-04-16T11:56:58.264Z,7.96
2023-04-16T12:00:02.083Z,8.00
2023-04-16T12:03:15.929Z,8.01
2023-04-16T12:06:18.224Z,7.98
2023-04-16T12:09:24.084Z,8.02
2023-04-16T12:12:27.175Z,7.99
2023-04-16T12:15:43.417Z,7.93
2023-04-16T12:19:01.466Z,7.90
2023-04-16T12:22:05.581Z,7.80
2023-04-16T12:25:12.797Z,7.77
2023-04-16T12:28:16.660Z,7.79
2023-04-16T12:31:20.481Z,7.79
2023-04-16T12:34:22.484Z,7.78
2023-04-16T12:37:43.052Z,7.79
2023-04-16T12:40:45.142Z,7.77
2023-04-16T12:43:47.241Z,7.75
2023-04-16T12:46:49.070Z,7.67
2023-04-16T12:49:51.191Z,7.59
2023-04-16T12:52:55.580Z,7.57
2023-04-16T12:55:57.728Z,7.49
2023-04-16T12:58:59.698Z,7.38
2023-04-16T13:02:05.886Z,7.38
2023-04-16T13:05:08.367Z,7.43
2023-04-16T13:08:11.728Z,7.46
2023-04-16T13:11:14.123Z,7.44
2023-04-16T13:14:16.179Z,7.41
2023-04-16T13:17:18.389Z,7.44
2023-04-16T13:20:22.470Z,7.50
2023-04-16T13:23:27.453Z,7.54
2023-04-16T13:26:29.730Z,7.57
2023-04-16T13:29:36.768Z,7.60
2023-04-16T13:32:38.879Z,7.64
2023-04-16T13:35:40.747Z,7.70
2023-04-16T13:38:44.812Z,7.73
2023-04-16T13:41:47.708Z,7.77
2023-04-16T13:44:53.182Z,7.76
2023-04-16T13:47:55.735Z,7.79
2023-04-16T13:50:57.322Z,7.82
2023-04-16T13:54:00.379Z,7.82
2023-04-16T13:57:02.329Z,7.84
2023-04-16T14:00:06.727Z,7.83
2023-04-16T14:03:08.801Z,7.84
2023-04-16T14:06:10.506Z,7.84
2023-04-16T14:09:13.843Z,7.90
2023-04-16T14:12:16.675Z,7.93
2023-04-16T14:15:18.844Z,7.94
2023-04-16T14:18:20.784Z,7.97
2023-04-16T14:21:22.487Z,8.03
2023-04-16T14:24:25.757Z,8.06
2023-04-16T14:27:28.371Z,8.17
2023-04-16T14:30:35.268Z,8.18
2023-04-16T14:33:36.966Z,8.14
2023-04-16T14:36:38.696Z,8.15
2023-04-16T14:39:42.422Z,8.16
2023-04-16T14:42:44.089Z,8.19
2023-04-16T14:45:46.215Z,8.24
2023-04-16T14:48:48.039Z,8.29
2023-04-16T14:51:49.836Z,8.26
2023-04-16T14:54:54.819Z,8.33
2023-04-16T14:57:56.946Z,8.38
2023-04-16T15:00:58.629Z,8.45
2023-04-16T15:04:02.054Z,8.47
2023-04-16T15:07:03.854Z,8.57
2023-04-16T15:10:07.605Z,8.65
2023-04-16T15:13:09.248Z,8.77
2023-04-16T15:16:10.986Z,8.78
2023-04-16T15:19:12.706Z,8.88
2023-04-16T15:22:14.923Z,8.98
2023-04-16T15:25:17.980Z,9.00
2023-04-16T15:28:19.759Z,8.97
2023-04-16T15:31:21.925Z,8.94
2023-04-16T15:34:23.549Z,8.92
2023-04-16T15:37:25.244Z,8.91
2023-04-16T15:40:28.275Z,8.96
2023-04-16T15:43:30.145Z,9.04
2023-04-16T15:46:32.364Z,9.11
2023-04-16T15:49:34.339Z,9.19
2023-04-16T15:52:36.598Z,9.18
2023-04-16T15:55:39.757Z,9.18
2023-04-16T15:58:41.756Z,9.16
2023-04-16T16:01:43.635Z,9.15
2023-04-16T16:04:46.347Z,9.17
2023-04-16T16:07:48.433Z,9.16
2023-04-16T16:10:52.413Z,9.17
2023-04-16T16:13:54.518Z,9.15
2023-04-16T16:16:56.345Z,9.14
2023-04-16T16:19:58.789Z,9.10
2023-04-16T16:23:03.448Z,9.11
2023-04-16T16:26:07.282Z,9.10
2023-04-16T16:29:09.446Z,9.11
2023-04-16T16:32:14.666Z,9.10
2023-04-16T16:35:18.757Z,9.12
2023-04-16T16:38:20.921Z,9.14
2023-04-16T16:41:24.251Z,9.12
2023-04-16T16:44:26.497Z,9.12
2023-04-16T16:47:28.379Z,9.11
2023-04-16T16:50:31.196Z,9.11
2023-04-16T16:53:33.224Z,9.08
2023-04-16T16:56:36.818Z,9.06
2023-04-16T16:59:38.808Z,9.06
2023-04-16T17:02:49.841Z,9.04
2023-04-16T17:06:20.302Z,9.03
2023-04-16T17:09:22.351Z,9.02
2023-04-16T17:12:26.135Z,9.01
2023-04-16T17:15:28.771Z,9.00
2023-04-16T17:18:30.787Z,9.00
2023-04-16T17:21:33.931Z,8.97
2023-04-16T17:24:36.148Z,8.95
2023-04-16T17:27:39.825Z,8.94
2023-04-16T17:30:42.461Z,8.91
2023-04-16T17:34:00.141Z,8.91
2023-04-16T17:37:02.459Z,8.93
2023-04-16T17:40:07.844Z,8.92
2023-04-16T17:43:12.027Z,8.91
2023-04-16T17:46:13.883Z,8.90
2023-04-16T17:49:16.148Z,8.89
2023-04-16T17:52:17.898Z,8.90
2023-04-16T17:55:19.552Z,8.90
2023-04-16T17:58:22.951Z,8.89
2023-04-16T18:01:24.837Z,8.87
2023-04-16T18:04:33.986Z,8.86
2023-04-16T18:07:36.568Z,8.87
2023-04-16T18:10:38.744Z,8.84
2023-04-16T18:13:44.041Z,8.71
2023-04-16T18:16:46.826Z,8.55
2023-04-16T18:19:48.952Z,8.41
2023-04-16T18:22:51.025Z,8.26
2023-04-16T18:25:53.380Z,8.10
2023-04-16T18:28:56.652Z,8.01
2023-04-16T18:31:59.119Z,7.91
2023-04-16T18:35:00.992Z,7.82
2023-04-16T18:38:02.914Z,7.74
2023-04-16T18:41:05.073Z,7.69
2023-04-16T18:44:10.736Z,7.66
2023-04-16T18:47:12.384Z,7.65
2023-04-16T18:50:14.116Z,7.70
2023-04-16T18:53:15.742Z,7.71
2023-04-16T18:56:17.388Z,7.78
2023-04-16T18:59:20.300Z,7.82
2023-04-16T19:02:22.125Z,7.81
2023-04-16T19:05:24.288Z,7.83
2023-04-16T19:08:27.020Z,7.87
2023-04-16T19:11:28.874Z,7.89
2023-04-16T19:14:32.094Z,7.87
2023-04-16T19:17:33.774Z,7.89
2023-04-16T19:20:35.653Z,7.91
2023-04-16T19:23:37.429Z,7.89
2023-04-16T19:26:39.292Z,7.89
2023-04-16T19:29:43.524Z,7.89
2023-04-16T19:32:45.135Z,7.88
2023-04-16T19:35:47.412Z,7.90
2023-04-16T19:38:49.118Z,7.90
2023-04-16T19:41:50.662Z,7.90
2023-04-16T19:44:53.818Z,7.90
2023-04-16T19:47:56.494Z,7.89
2023-04-16T19:51:01.203Z,7.90
2023-04-16T19:54:02.934Z,7.89
2023-04-16T19:57:05.688Z,7.88
2023-04-16T20:00:11.455Z,7.85
2023-04-16T20:03:13.966Z,7.84
2023-04-16T20:06:17.540Z,7.82
2023-04-16T20:09:20.242Z,7.81
2023-04-16T20:12:22.478Z,7.80
2023-04-16T20:15:26.117Z,7.80
2023-04-16T20:18:28.860Z,7.79
2023-04-16T20:21:32.509Z,7.78
2023-04-16T20:24:34.851Z,7.76
2023-04-16T20:27:36.608Z,7.75
2023-04-16T20:30:40.486Z,7.74
2023-04-16T20:33:42.436Z,7.72
2023-04-16T20:36:44.176Z,7.70
2023-04-16T20:39:46.941Z,7.69
2023-04-16T20:42:51.081Z,7.66
2023-04-16T20:45:57.147Z,7.64
2023-04-16T20:48:58.800Z,7.60
2023-04-16T20:52:00.611Z,7.57
2023-04-16T20:55:06.012Z,7.57
2023-04-16T20:58:07.710Z,7.55
2023-04-16T21:01:10.984Z,7.56
2023-04-16T21:04:13.090Z,7.61
2023-04-16T21:07:14.783Z,7.60
2023-04-16T21:10:20.178Z,7.58
2023-04-16T21:13:23.644Z,7.53
2023-04-16T21:16:27.446Z,7.50
2023-04-16T21:19:29.110Z,7.50
2023-04-16T21:22:30.788Z,7.49
2023-04-16T21:25:33.600Z,7.48
2023-04-16T21:28:35.188Z,7.46
2023-04-16T21:31:38.281Z,7.45
2023-04-16T21:34:39.895Z,7.43
2023-04-16T21:37:41.503Z,7.42
2023-04-16T21:40:43.189Z,7.41
2023-04-16T21:43:47.842Z,7.39
2023-04-16T21:46:51.285Z,7.38
2023-04-16T21:49:52.815Z,7.34
2023-04-16T21:52:54.859Z,7.33
2023-04-16T21:55:56.456Z,7.31
2023-04-16T21:58:58.417Z,7.31
2023-04-16T22:02:01.953Z,7.30
2023-04-16T22:05:03.759Z,7.28
2023-04-16T22:08:20.948Z,7.31
2023-04-16T22:11:30.041Z,7.35
2023-04-16T22:14:31.944Z,7.38
2023-04-16T22:17:35.060Z,7.37
2023-04-16T22:20:39.098Z,7.34
2023-04-16T22:23:41.033Z,7.32
2023-04-16T22:26:42.701Z,7.34
2023-04-16T22:29:44.366Z,7.31
2023-04-16T22:32:47.374Z,7.33
2023-04-16T22:35:49.144Z,7.29
2023-04-16T22:38:50.898Z,7.26
2023-04-16T22:41:52.483Z,7.23
2023-04-16T22:44:56.879Z,7.24
2023-04-16T22:47:59.816Z,7.24
2023-04-16T22:51:01.792Z,7.22
2023-04-16T22:54:03.580Z,7.21
2023-04-16T22:57:05.268Z,7.18
2023-04-16T23:00:15.794Z,7.18
2023-04-16T23:03:18.995Z,7.17
2023-04-16T23:06:20.719Z,7.14
2023-04-16T23:09:22.545Z,7.13
2023-04-16T23:12:24.186Z,7.13
2023-04-16T23:15:25.852Z,7.13
2023-04-16T23:18:28.974Z,7.14
2023-04-16T23:21:30.996Z,7.13
2023-04-16T23:24:32.554Z,7.13
2023-04-16T23:27:34.143Z,7.18
2023-04-16T23:30:35.682Z,7.15
2023-04-16T23:33:39.083Z,7.13
2023-04-16T23:36:40.831Z,7.13
2023-04-16T23:39:42.516Z,7.10
2023-04-16T23:42:44.178Z,7.11
2023-04-16T23:45:46.004Z,7.15
2023-04-16T23:48:49.151Z,7.14
2023-04-16T23:51:50.891Z,7.10
2023-04-16T23:54:52.709Z,7.08
2023-04-16T23:57:54.242Z,7.09
